Flight Track Log - Related Links

Times and Time Zones

All times are in EDT time to prevent confusion due to time zone crossing. See the UAL332 flight status page for this flight to view local times or setup timezone preferences in your user account.


Time Position Orientation Groundspeed Altitude Reporting Facility
EDT Latitude Longitude Course Direction KTS MPH feet Rate Location/Type
Tue 04:19:20 PM 29.9597 -95.3439 102° East 154 177 900  Level Houston Center
Tue 04:20:28 PM 29.9475 -95.2803 102° East 205 236 3,100 2,224 Climbing Houston Center
Tue 04:21:16 PM 29.9425 -95.2219 96° East 235 270 5,200 3,353 Climbing Houston Center
Tue 04:21:36 PM 29.9392 -95.1894 97° East 263 303 6,900 3,484 Climbing Houston Center
Tue 04:22:18 PM 29.9347 -95.1386 96° East 261 300 8,800 3,443 Climbing Houston Center
Tue 04:22:37 PM 29.9308 -95.1014 97° East 279 321 10,400 2,806 Climbing Houston Center
Tue 04:23:20 PM 29.9269 -95.0483 95° East 275 316 11,700 2,066 Climbing Houston Center
Tue 04:23:38 PM 29.9239 -95.0033 94° East 320 368 12,500 1,935 Climbing Houston Center
Tue 04:24:22 PM 29.9181 -94.9431 96° East 313 360 13,700 2,066 Climbing Houston Center
Tue 04:24:39 PM 29.9117 -94.8964 99° East 350 403 14,600 2,032 Climbing Houston Center
Tue 04:25:24 PM 29.9086 -94.8275 93° East 348 400 15,800 1,402 Climbing Houston Center
Tue 04:26:26 PM 29.8961 -94.6839 96° East 369 425 17,100 1,742 Climbing Houston Center
Tue 04:27:28 PM 29.8850 -94.5603 96° East 382 440 19,400 2,032 Climbing Houston Center
Tue 04:28:30 PM 29.8733 -94.4350 96° East 390 449 21,300 1,548 Climbing Houston Center
Tue 04:29:32 PM 29.8625 -94.3042 95° East 403 464 22,600 823 Climbing Houston Center
Tue 04:30:34 PM 29.8569 -94.1669 93° East 421 484 23,000 387 Climbing Houston Center
Tue 04:31:36 PM 29.8561 -94.0117 90° East 421 484 23,400 960 Climbing Houston Center
Tue 04:32:39 PM 29.8706 -93.8753 83° East 428 493 25,000 1,440 Climbing Houston Center
Tue 04:33:41 PM 29.8836 -93.7356 84° East 437 503 26,400 968 Climbing Houston Center
Tue 04:34:43 PM 29.8967 -93.5956 84° East 443 510 27,000 242 Climbing Houston Center
Tue 04:35:45 PM 29.9075 -93.4558 85° East 443 510 26,900  Descending Houston Center
Tue 04:36:47 PM 29.9231 -93.2883 84° East 443 510 27,000  Climbing Houston Center
Tue 04:37:49 PM 29.9361 -93.1478 84° East 445 512 26,900  Descending Houston Center
Tue 04:38:51 PM 29.9489 -93.0081 84° East 443 510 27,000 48 Climbing Houston Center
Tue 04:39:53 PM 29.9614 -92.8692 84° East 439 505 27,000 -48 Level Houston Center
Tue 04:40:55 PM 29.9731 -92.7281 85° East 443 510 26,900  Descending Houston Center
Tue 04:41:57 PM 29.9878 -92.5586 84° East 445 512 27,000  Climbing Houston Center
Tue 04:42:59 PM 30.0008 -92.4167 84° East 446 513 26,900 -48 Descending Houston Center
Tue 04:44:02 PM 30.0119 -92.2750 85° East 447 514 26,900 -240 Level Houston Center
Tue 04:45:04 PM 30.0244 -92.1339 84° East 444 511 26,400 -726 Descending Houston Center
Tue 04:46:06 PM 30.0367 -91.9928 84° East 444 511 25,400 -1,258 Descending Houston Center
Tue 04:47:08 PM 30.0489 -91.8275 85° East 434 499 23,800 -1,839 Descending Houston Center
Tue 04:48:10 PM 30.0611 -91.6889 84° East 419 482 21,600 -2,032 Descending Houston Center
Tue 04:49:12 PM 30.0711 -91.5600 85° East 407 468 19,600 -1,887 Descending Houston Center
Tue 04:50:14 PM 30.0800 -91.4361 85° East 391 450 17,700 -1,790 Descending Houston Center
Tue 04:51:16 PM 30.0889 -91.3156 85° East 380 437 15,900 -2,000 Descending Houston Center
Tue 04:52:02 PM 30.0981 -91.2172 84° East 366 421 14,100 -2,000 Descending Houston Center
Tue 04:52:19 PM 30.0978 -91.1992 91° East 368 423 13,800 -2,108 Descending Houston Center
Tue 04:52:39 PM 30.1047 -91.1450 82° East 361 415 12,800 -2,032 Descending Houston Center
Tue 04:53:21 PM 30.1081 -91.0861 86° East 357 411 11,700 -1,367 Descending Houston Center
Tue 04:53:58 PM 30.1136 -91.0031 86° East 339 390 11,000 -677 Descending Houston Center
Tue 04:54:23 PM 30.1164 -90.9625 85° East 318 366 11,000  Level Houston Center
Tue 04:54:46 PM 30.1158 -90.9236 91° East 292 336 11,000 -387 Level Houston Center
Tue 04:55:25 PM 30.1083 -90.8711 99° East 290 334 10,600 -1,075 Descending Houston Center
Tue 04:55:53 PM 30.1008 -90.8256 101° East 284 327 9,800 -1,452 Descending Houston Center
Tue 04:56:27 PM 30.0947 -90.7808 99° East 287 330 9,100 -1,377 Descending Houston Center
Tue 04:56:54 PM 30.0861 -90.7372 103° East 284 327 8,400 -1,452 Descending Houston Center
Tue 04:57:29 PM 30.0789 -90.6919 100° East 285 328 7,600 -1,700 Descending Houston Center
Tue 04:57:54 PM 30.0711 -90.6489 102° East 276 318 6,700 -2,032 Descending Houston Center
Tue 04:58:31 PM 30.0633 -90.6083 102° East 278 320 5,500 -2,239 Descending Houston Center
Tue 04:59:01 PM 30.0539 -90.5558 102° East 261 300 4,200 -2,323 Descending Houston Center
Tue 04:59:33 PM 30.0467 -90.5119 101° East 266 306 3,100 -1,837 Descending Houston Center
Tue 04:59:50 PM 30.0417 -90.4939 108° East 255 293 2,700 -667 Descending Houston Center
Tue 05:00:36 PM 30.0339 -90.4342 99° East 257 296 2,400 -667 Descending Houston Center
Tue 05:01:02 PM 30.0267 -90.4081 108° East 196 226 1,900 -774 Descending Houston Center
Tue 05:01:38 PM 30.0208 -90.3822 105° East 204 235 1,600 -545 Descending Houston Center
Tue 05:01:57 PM 30.0150 -90.3628 109° East 150 173 1,400 -677 Descending Houston Center
Tue 05:02:40 PM 30.0089 -90.3353 104° East 173 199 900 -764 Descending Houston Center
Tue 05:02:52 PM 30.0053 -90.3222 108° East 142 163 700 -581 Descending Houston Center
Tue 05:03:42 PM 30.0003 -90.2953 102° East 151 174 300 -321 Descending Houston Center
Tue 05:04:44 PM 29.9897 -90.2553 107° East 148 170 100 -194 Descending Houston Center

Login

Don't have an account? Register now (free) for customized features, flight alerts, and more!